Terminal Aerodrome Forecast
Issued by NWS

Home | Current Version | Previous Version | Text Only | Print | Product List | Glossary On
Versions: 1 2 3 4 5 6 7 8 9 10 11 12 13 14 15 16 17 18 19 20 21
000
FTUS43 KFGF 231728
TAFTVF
TAF
KTVF 231728Z 2318/2418 24010KT P6SM OVC012
      TEMPO 2319/2322 OVC025
     FM240000 22006KT P6SM BKN020
     FM241100 VRB03KT P6SM OVC015=

USA.gov is the U.S. government's official web portal to all federal, state and local government web resources and services.